Aniwa, Wisconsin
Current Conditions -  °F | °C
As of 11:15 AM on Friday 31 Oct 2014 (Local Time) from KAIG Reporting Station
Overcast Overcast  
Wind Chill: 16°   Ceiling: 3700
Heat Index: 30°   Visibility: 10mi
Dew Point: 20°   Wind: 23mph
Humidity: 68%   Direction: 20°NNE
Pressure: 30.35"   Gusts: 33mph
Location:  45.01°N, 89.21°W
Report Text: KAIG 311615Z AUTO 02020G29KT 10SM OVC037 M01/M06 A3035 RMK AO2 T10121065
Loading
Personal Weather Stations






























Interactive Weather Map
Tropical Storm Tracking
New forecast layout! Learn more

10-Day Weather Forecast

Advertisements
Track Severe Weather on mobile